sensor_id;sensor_type;location;lat;lon;timestamp;pressure;altitude;pressure_sealevel;temperature;humidity
51067;BME280;37112;45.892;-123.962;2023-02-17T00:01:16;102106.55;;;9.38;65.92
51067;BME280;37112;45.892;-123.962;2023-02-17T00:03:31;102102.98;;;9.34;66.48
51067;BME280;37112;45.892;-123.962;2023-02-17T00:05:44;102103.99;;;9.31;66.95
51067;BME280;37112;45.892;-123.962;2023-02-17T00:07:59;102105.49;;;9.29;66.97
51067;BME280;37112;45.892;-123.962;2023-02-17T00:10:13;102105.55;;;9.27;67.21
51067;BME280;37112;45.892;-123.962;2023-02-17T00:12:27;102103.11;;;9.26;67.50
51067;BME280;37112;45.892;-123.962;2023-02-17T00:14:42;102103.45;;;9.22;67.48
51067;BME280;37112;45.892;-123.962;2023-02-17T00:16:56;102100.92;;;9.18;67.82
51067;BME280;37112;45.892;-123.962;2023-02-17T00:19:11;102104.52;;;9.17;67.91
51067;BME280;37112;45.892;-123.962;2023-02-17T00:21:36;102103.15;;;9.16;68.00
51067;BME280;37112;45.892;-123.962;2023-02-17T00:23:50;102096.60;;;9.16;68.15
51067;BME280;37112;45.892;-123.962;2023-02-17T00:26:06;102095.30;;;9.17;68.26
51067;BME280;37112;45.892;-123.962;2023-02-17T00:28:19;102096.18;;;9.17;68.18
51067;BME280;37112;45.892;-123.962;2023-02-17T00:30:33;102095.25;;;9.14;67.70
51067;BME280;37112;45.892;-123.962;2023-02-17T00:32:46;102093.78;;;9.11;67.64
51067;BME280;37112;45.892;-123.962;2023-02-17T00:35:00;102095.58;;;9.10;67.48
51067;BME280;37112;45.892;-123.962;2023-02-17T00:37:15;102093.83;;;9.09;67.43
51067;BME280;37112;45.892;-123.962;2023-02-17T00:39:32;102090.63;;;9.10;67.61
51067;BME280;37112;45.892;-123.962;2023-02-17T00:41:45;102092.28;;;9.09;67.48
51067;BME280;37112;45.892;-123.962;2023-02-17T00:43:59;102099.07;;;9.07;67.47
51067;BME280;37112;45.892;-123.962;2023-02-17T00:46:13;102099.80;;;9.07;67.41
51067;BME280;37112;45.892;-123.962;2023-02-17T00:48:26;102102.38;;;9.05;67.13
51067;BME280;37112;45.892;-123.962;2023-02-17T00:50:43;102103.42;;;9.00;67.14
51067;BME280;37112;45.892;-123.962;2023-02-17T00:52:57;102101.40;;;8.98;67.15
51067;BME280;37112;45.892;-123.962;2023-02-17T00:55:11;102101.53;;;8.94;67.07
51067;BME280;37112;45.892;-123.962;2023-02-17T00:57:24;102102.58;;;8.90;67.11
51067;BME280;37112;45.892;-123.962;2023-02-17T00:59:42;102105.59;;;8.85;67.25
51067;BME280;37112;45.892;-123.962;2023-02-17T01:01:55;102106.35;;;8.80;67.35
51067;BME280;37112;45.892;-123.962;2023-02-17T01:04:10;102110.09;;;8.75;67.54
51067;BME280;37112;45.892;-123.962;2023-02-17T01:06:26;102113.10;;;8.70;67.78
51067;BME280;37112;45.892;-123.962;2023-02-17T01:08:41;102110.71;;;8.67;68.09
51067;BME280;37112;45.892;-123.962;2023-02-17T01:10:55;102113.84;;;8.64;68.08
51067;BME280;37112;45.892;-123.962;2023-02-17T01:13:14;102110.75;;;8.61;68.17
51067;BME280;37112;45.892;-123.962;2023-02-17T01:15:30;102106.22;;;8.59;68.15
51067;BME280;37112;45.892;-123.962;2023-02-17T01:17:43;102102.36;;;8.58;68.30
51067;BME280;37112;45.892;-123.962;2023-02-17T01:19:56;102103.63;;;8.58;68.51
51067;BME280;37112;45.892;-123.962;2023-02-17T01:22:10;102107.52;;;8.58;68.63
51067;BME280;37112;45.892;-123.962;2023-02-17T01:24:23;102102.63;;;8.56;68.62
51067;BME280;37112;45.892;-123.962;2023-02-17T01:26:37;102109.05;;;8.54;68.67
51067;BME280;37112;45.892;-123.962;2023-02-17T01:28:52;102107.50;;;8.53;68.83
51067;BME280;37112;45.892;-123.962;2023-02-17T01:31:09;102109.16;;;8.51;69.00
51067;BME280;37112;45.892;-123.962;2023-02-17T01:33:23;102109.95;;;8.50;69.23
51067;BME280;37112;45.892;-123.962;2023-02-17T01:35:38;102113.73;;;8.48;69.36
51067;BME280;37112;45.892;-123.962;2023-02-17T01:37:53;102114.34;;;8.46;69.29
51067;BME280;37112;45.892;-123.962;2023-02-17T01:40:10;102114.23;;;8.44;69.40
51067;BME280;37112;45.892;-123.962;2023-02-17T01:42:23;102119.20;;;8.44;69.85
51067;BME280;37112;45.892;-123.962;2023-02-17T01:47:02;102120.65;;;8.43;70.10
51067;BME280;37112;45.892;-123.962;2023-02-17T01:49:24;102116.95;;;8.42;70.18
51067;BME280;37112;45.892;-123.962;2023-02-17T01:51:39;102117.70;;;8.41;70.39
51067;BME280;37112;45.892;-123.962;2023-02-17T01:53:56;102113.64;;;8.41;70.47
51067;BME280;37112;45.892;-123.962;2023-02-17T01:56:14;102113.82;;;8.41;70.67
51067;BME280;37112;45.892;-123.962;2023-02-17T01:58:29;102106.23;;;8.40;70.69
51067;BME280;37112;45.892;-123.962;2023-02-17T02:00:44;102111.61;;;8.38;70.62
51067;BME280;37112;45.892;-123.962;2023-02-17T02:02:58;102112.52;;;8.37;70.70
51067;BME280;37112;45.892;-123.962;2023-02-17T02:05:13;102118.76;;;8.36;70.77
51067;BME280;37112;45.892;-123.962;2023-02-17T02:07:29;102119.49;;;8.35;70.91
51067;BME280;37112;45.892;-123.962;2023-02-17T02:09:47;102123.77;;;8.35;71.01
51067;BME280;37112;45.892;-123.962;2023-02-17T02:12:13;102124.64;;;8.34;71.09
51067;BME280;37112;45.892;-123.962;2023-02-17T02:14:29;102128.89;;;8.34;71.19
51067;BME280;37112;45.892;-123.962;2023-02-17T02:16:48;102131.02;;;8.35;71.46
51067;BME280;37112;45.892;-123.962;2023-02-17T02:19:12;102130.48;;;8.35;71.48
51067;BME280;37112;45.892;-123.962;2023-02-17T02:21:58;102137.90;;;8.35;71.60
51067;BME280;37112;45.892;-123.962;2023-02-17T02:24:36;102143.21;;;8.35;71.81
51067;BME280;37112;45.892;-123.962;2023-02-17T02:32:49;102147.81;;;8.41;72.00
51067;BME280;37112;45.892;-123.962;2023-02-17T02:35:10;102148.27;;;8.42;71.96
51067;BME280;37112;45.892;-123.962;2023-02-17T02:37:28;102150.52;;;8.44;72.14
51067;BME280;37112;45.892;-123.962;2023-02-17T02:39:46;102152.89;;;8.47;72.28
51067;BME280;37112;45.892;-123.962;2023-02-17T02:42:04;102156.03;;;8.48;72.30
51067;BME280;37112;45.892;-123.962;2023-02-17T02:44:20;102161.60;;;8.46;72.23
51067;BME280;37112;45.892;-123.962;2023-02-17T02:46:34;102165.05;;;8.43;72.52
51067;BME280;37112;45.892;-123.962;2023-02-17T02:48:48;102161.81;;;8.39;72.69
51067;BME280;37112;45.892;-123.962;2023-02-17T02:51:11;102158.27;;;8.35;72.73
51067;BME280;37112;45.892;-123.962;2023-02-17T02:53:51;102157.70;;;8.30;72.57
51067;BME280;37112;45.892;-123.962;2023-02-17T02:56:16;102156.27;;;8.26;72.55
51067;BME280;37112;45.892;-123.962;2023-02-17T02:58:42;102155.63;;;8.23;72.75
51067;BME280;37112;45.892;-123.962;2023-02-17T03:01:01;102158.73;;;8.21;72.62
51067;BME280;37112;45.892;-123.962;2023-02-17T03:03:19;102162.20;;;8.18;72.64
51067;BME280;37112;45.892;-123.962;2023-02-17T03:05:40;102163.36;;;8.15;72.67
51067;BME280;37112;45.892;-123.962;2023-02-17T03:08:01;102163.79;;;8.12;72.52
51067;BME280;37112;45.892;-123.962;2023-02-17T03:10:17;102167.05;;;8.10;72.78
51067;BME280;37112;45.892;-123.962;2023-02-17T03:12:31;102164.61;;;8.09;72.78
51067;BME280;37112;45.892;-123.962;2023-02-17T03:14:46;102163.74;;;8.08;72.82
51067;BME280;37112;45.892;-123.962;2023-02-17T03:17:00;102162.05;;;8.06;72.92
51067;BME280;37112;45.892;-123.962;2023-02-17T03:19:14;102163.84;;;8.05;73.04
51067;BME280;37112;45.892;-123.962;2023-02-17T03:21:32;102165.66;;;8.04;72.95
51067;BME280;37112;45.892;-123.962;2023-02-17T03:23:47;102161.61;;;8.04;72.93
51067;BME280;37112;45.892;-123.962;2023-02-17T03:26:00;102159.70;;;8.03;73.11
51067;BME280;37112;45.892;-123.962;2023-02-17T03:28:14;102156.73;;;8.01;73.12
51067;BME280;37112;45.892;-123.962;2023-02-17T03:30:28;102158.15;;;8.01;73.06
51067;BME280;37112;45.892;-123.962;2023-02-17T03:32:41;102159.92;;;8.01;73.14
51067;BME280;37112;45.892;-123.962;2023-02-17T03:34:57;102163.61;;;8.02;73.26
51067;BME280;37112;45.892;-123.962;2023-02-17T03:37:10;102164.30;;;8.03;73.21
51067;BME280;37112;45.892;-123.962;2023-02-17T03:39:23;102162.73;;;8.01;73.25
51067;BME280;37112;45.892;-123.962;2023-02-17T03:41:36;102162.26;;;8.00;73.03
51067;BME280;37112;45.892;-123.962;2023-02-17T03:43:49;102164.10;;;7.98;72.97
51067;BME280;37112;45.892;-123.962;2023-02-17T03:46:03;102163.98;;;7.96;73.09
51067;BME280;37112;45.892;-123.962;2023-02-17T03:48:16;102163.17;;;7.95;73.00
51067;BME280;37112;45.892;-123.962;2023-02-17T03:50:30;102159.14;;;7.93;72.96
51067;BME280;37112;45.892;-123.962;2023-02-17T03:52:43;102157.39;;;7.93;73.03
51067;BME280;37112;45.892;-123.962;2023-02-17T03:54:56;102160.73;;;7.93;73.17
51067;BME280;37112;45.892;-123.962;2023-02-17T03:57:10;102158.05;;;7.94;73.15
51067;BME280;37112;45.892;-123.962;2023-02-17T03:59:23;102153.02;;;7.96;73.12
51067;BME280;37112;45.892;-123.962;2023-02-17T04:01:37;102149.30;;;7.96;73.20
51067;BME280;37112;45.892;-123.962;2023-02-17T04:03:50;102149.48;;;7.96;73.22
51067;BME280;37112;45.892;-123.962;2023-02-17T04:06:03;102151.31;;;7.95;73.05
51067;BME280;37112;45.892;-123.962;2023-02-17T04:08:17;102150.64;;;7.93;73.01
51067;BME280;37112;45.892;-123.962;2023-02-17T04:10:30;102147.77;;;7.95;73.24
51067;BME280;37112;45.892;-123.962;2023-02-17T04:12:44;102145.52;;;7.93;73.14
51067;BME280;37112;45.892;-123.962;2023-02-17T04:14:57;102152.25;;;7.93;73.21
51067;BME280;37112;45.892;-123.962;2023-02-17T04:17:23;102150.92;;;7.90;73.23
51067;BME280;37112;45.892;-123.962;2023-02-17T04:19:37;102151.86;;;7.89;73.14
51067;BME280;37112;45.892;-123.962;2023-02-17T04:21:49;102149.61;;;7.87;73.04
51067;BME280;37112;45.892;-123.962;2023-02-17T04:24:04;102150.18;;;7.86;73.01
51067;BME280;37112;45.892;-123.962;2023-02-17T04:26:17;102148.44;;;7.85;73.13
51067;BME280;37112;45.892;-123.962;2023-02-17T04:28:36;102152.01;;;7.84;73.34
51067;BME280;37112;45.892;-123.962;2023-02-17T04:30:52;102149.02;;;7.84;73.26
51067;BME280;37112;45.892;-123.962;2023-02-17T04:33:06;102150.84;;;7.82;73.35
51067;BME280;37112;45.892;-123.962;2023-02-17T04:35:20;102154.79;;;7.81;73.32
51067;BME280;37112;45.892;-123.962;2023-02-17T04:37:33;102156.92;;;7.80;73.32
51067;BME280;37112;45.892;-123.962;2023-02-17T04:39:47;102155.61;;;7.77;73.25
51067;BME280;37112;45.892;-123.962;2023-02-17T04:42:02;102160.11;;;7.74;73.49
51067;BME280;37112;45.892;-123.962;2023-02-17T04:44:17;102160.55;;;7.72;73.40
51067;BME280;37112;45.892;-123.962;2023-02-17T04:46:31;102160.42;;;7.70;73.52
51067;BME280;37112;45.892;-123.962;2023-02-17T04:48:45;102160.83;;;7.68;73.61
51067;BME280;37112;45.892;-123.962;2023-02-17T04:50:59;102161.73;;;7.68;73.77
51067;BME280;37112;45.892;-123.962;2023-02-17T04:53:13;102167.66;;;7.66;73.73
51067;BME280;37112;45.892;-123.962;2023-02-17T04:55:27;102167.17;;;7.64;73.71
51067;BME280;37112;45.892;-123.962;2023-02-17T04:57:43;102168.98;;;7.62;73.93
51067;BME280;37112;45.892;-123.962;2023-02-17T04:59:57;102167.59;;;7.62;73.92
51067;BME280;37112;45.892;-123.962;2023-02-17T05:02:11;102168.33;;;7.61;74.08
51067;BME280;37112;45.892;-123.962;2023-02-17T05:04:24;102166.77;;;7.60;74.29
51067;BME280;37112;45.892;-123.962;2023-02-17T05:06:37;102169.98;;;7.59;74.16
51067;BME280;37112;45.892;-123.962;2023-02-17T05:08:51;102169.47;;;7.59;74.31
51067;BME280;37112;45.892;-123.962;2023-02-17T05:11:06;102168.44;;;7.58;74.36
51067;BME280;37112;45.892;-123.962;2023-02-17T05:13:20;102168.64;;;7.57;74.38
51067;BME280;37112;45.892;-123.962;2023-02-17T05:15:34;102166.05;;;7.55;74.43
51067;BME280;37112;45.892;-123.962;2023-02-17T05:17:47;102164.52;;;7.52;74.44
51067;BME280;37112;45.892;-123.962;2023-02-17T05:20:00;102164.05;;;7.51;74.63
51067;BME280;37112;45.892;-123.962;2023-02-17T05:22:13;102160.60;;;7.48;74.47
51067;BME280;37112;45.892;-123.962;2023-02-17T05:24:27;102158.52;;;7.47;74.65
51067;BME280;37112;45.892;-123.962;2023-02-17T05:26:44;102162.45;;;7.45;74.83
51067;BME280;37112;45.892;-123.962;2023-02-17T05:29:02;102157.88;;;7.44;74.93
51067;BME280;37112;45.892;-123.962;2023-02-17T05:31:15;102161.29;;;7.43;74.91
51067;BME280;37112;45.892;-123.962;2023-02-17T05:33:29;102164.22;;;7.40;74.89
51067;BME280;37112;45.892;-123.962;2023-02-17T05:35:45;102161.66;;;7.37;74.84
51067;BME280;37112;45.892;-123.962;2023-02-17T05:38:01;102164.58;;;7.34;74.85
51067;BME280;37112;45.892;-123.962;2023-02-17T05:40:18;102164.73;;;7.35;74.94
51067;BME280;37112;45.892;-123.962;2023-02-17T05:42:31;102164.41;;;7.34;75.00
51067;BME280;37112;45.892;-123.962;2023-02-17T05:44:44;102164.42;;;7.34;75.09
51067;BME280;37112;45.892;-123.962;2023-02-17T05:46:58;102169.75;;;7.33;75.04
51067;BME280;37112;45.892;-123.962;2023-02-17T05:49:12;102172.27;;;7.31;74.92
51067;BME280;37112;45.892;-123.962;2023-02-17T05:51:27;102170.92;;;7.29;75.15
51067;BME280;37112;45.892;-123.962;2023-02-17T05:53:41;102172.74;;;7.27;75.03
51067;BME280;37112;45.892;-123.962;2023-02-17T05:55:55;102175.44;;;7.26;75.00
51067;BME280;37112;45.892;-123.962;2023-02-17T05:58:11;102175.96;;;7.26;75.04
51067;BME280;37112;45.892;-123.962;2023-02-17T06:00:25;102172.73;;;7.28;74.99
51067;BME280;37112;45.892;-123.962;2023-02-17T06:02:39;102173.02;;;7.30;75.19
51067;BME280;37112;45.892;-123.962;2023-02-17T06:04:55;102174.77;;;7.31;75.12
51067;BME280;37112;45.892;-123.962;2023-02-17T06:07:09;102174.92;;;7.31;75.14
51067;BME280;37112;45.892;-123.962;2023-02-17T06:09:27;102178.63;;;7.31;75.15
51067;BME280;37112;45.892;-123.962;2023-02-17T06:11:43;102183.21;;;7.32;75.11
51067;BME280;37112;45.892;-123.962;2023-02-17T06:14:00;102184.95;;;7.33;75.21
51067;BME280;37112;45.892;-123.962;2023-02-17T06:16:13;102183.15;;;7.34;75.08
51067;BME280;37112;45.892;-123.962;2023-02-17T06:18:28;102187.16;;;7.35;75.09
51067;BME280;37112;45.892;-123.962;2023-02-17T06:20:42;102186.23;;;7.37;74.90
51067;BME280;37112;45.892;-123.962;2023-02-17T06:22:56;102184.96;;;7.37;75.03
51067;BME280;37112;45.892;-123.962;2023-02-17T06:25:10;102189.71;;;7.38;74.97
51067;BME280;37112;45.892;-123.962;2023-02-17T06:27:30;102188.97;;;7.40;74.86
51067;BME280;37112;45.892;-123.962;2023-02-17T06:29:43;102189.05;;;7.43;74.85
51067;BME280;37112;45.892;-123.962;2023-02-17T06:32:01;102191.95;;;7.46;74.75
51067;BME280;37112;45.892;-123.962;2023-02-17T06:34:15;102192.10;;;7.47;74.68
51067;BME280;37112;45.892;-123.962;2023-02-17T06:36:29;102191.55;;;7.48;74.71
51067;BME280;37112;45.892;-123.962;2023-02-17T06:38:42;102189.17;;;7.50;74.66
51067;BME280;37112;45.892;-123.962;2023-02-17T06:40:55;102186.30;;;7.51;74.64
51067;BME280;37112;45.892;-123.962;2023-02-17T06:43:11;102189.65;;;7.52;74.63
51067;BME280;37112;45.892;-123.962;2023-02-17T06:45:25;102190.16;;;7.52;74.42
51067;BME280;37112;45.892;-123.962;2023-02-17T06:47:38;102191.80;;;7.50;74.44
51067;BME280;37112;45.892;-123.962;2023-02-17T06:49:51;102193.60;;;7.50;74.46
51067;BME280;37112;45.892;-123.962;2023-02-17T06:52:04;102195.71;;;7.50;74.52
51067;BME280;37112;45.892;-123.962;2023-02-17T06:54:18;102196.44;;;7.49;74.48
51067;BME280;37112;45.892;-123.962;2023-02-17T06:56:32;102199.86;;;7.48;74.46
51067;BME280;37112;45.892;-123.962;2023-02-17T06:58:46;102202.71;;;7.46;74.62
51067;BME280;37112;45.892;-123.962;2023-02-17T07:01:01;102208.04;;;7.45;74.64
51067;BME280;37112;45.892;-123.962;2023-02-17T07:03:15;102209.33;;;7.44;74.57
51067;BME280;37112;45.892;-123.962;2023-02-17T07:05:28;102206.90;;;7.43;74.73
51067;BME280;37112;45.892;-123.962;2023-02-17T07:07:42;102213.63;;;7.42;74.86
51067;BME280;37112;45.892;-123.962;2023-02-17T07:09:55;102213.80;;;7.42;75.01
51067;BME280;37112;45.892;-123.962;2023-02-17T07:12:25;102217.17;;;7.42;74.92
51067;BME280;37112;45.892;-123.962;2023-02-17T07:14:40;102218.41;;;7.42;74.92
51067;BME280;37112;45.892;-123.962;2023-02-17T07:16:54;102219.16;;;7.41;74.94
51067;BME280;37112;45.892;-123.962;2023-02-17T07:19:07;102220.09;;;7.40;75.19
51067;BME280;37112;45.892;-123.962;2023-02-17T07:21:21;102221.69;;;7.38;75.19
51067;BME280;37112;45.892;-123.962;2023-02-17T07:23:34;102225.45;;;7.37;75.37
51067;BME280;37112;45.892;-123.962;2023-02-17T07:25:47;102225.48;;;7.36;75.47
51067;BME280;37112;45.892;-123.962;2023-02-17T07:28:00;102228.00;;;7.34;75.45
51067;BME280;37112;45.892;-123.962;2023-02-17T07:30:14;102226.48;;;7.33;75.49
51067;BME280;37112;45.892;-123.962;2023-02-17T07:32:27;102230.55;;;7.32;75.62
51067;BME280;37112;45.892;-123.962;2023-02-17T07:34:41;102229.23;;;7.29;75.58
51067;BME280;37112;45.892;-123.962;2023-02-17T07:36:54;102231.80;;;7.26;75.75
51067;BME280;37112;45.892;-123.962;2023-02-17T07:39:07;102232.74;;;7.23;75.83
51067;BME280;37112;45.892;-123.962;2023-02-17T07:41:21;102231.75;;;7.21;75.89
51067;BME280;37112;45.892;-123.962;2023-02-17T07:43:38;102233.05;;;7.19;76.11
51067;BME280;37112;45.892;-123.962;2023-02-17T07:45:55;102237.55;;;7.16;76.05
51067;BME280;37112;45.892;-123.962;2023-02-17T07:48:09;102236.59;;;7.13;76.14
51067;BME280;37112;45.892;-123.962;2023-02-17T07:50:22;102241.46;;;7.10;76.22
51067;BME280;37112;45.892;-123.962;2023-02-17T07:52:36;102245.22;;;7.07;76.51
51067;BME280;37112;45.892;-123.962;2023-02-17T07:54:51;102245.61;;;7.06;76.47
51067;BME280;37112;45.892;-123.962;2023-02-17T07:57:08;102248.70;;;7.04;76.75
51067;BME280;37112;45.892;-123.962;2023-02-17T07:59:21;102251.40;;;7.02;76.76
51067;BME280;37112;45.892;-123.962;2023-02-17T08:01:35;102252.47;;;7.02;76.95
51067;BME280;37112;45.892;-123.962;2023-02-17T08:03:49;102256.36;;;7.02;77.11
51067;BME280;37112;45.892;-123.962;2023-02-17T08:06:03;102254.58;;;7.02;77.31
51067;BME280;37112;45.892;-123.962;2023-02-17T08:08:16;102257.92;;;7.02;77.46
51067;BME280;37112;45.892;-123.962;2023-02-17T08:10:47;102261.21;;;7.04;77.64
51067;BME280;37112;45.892;-123.962;2023-02-17T08:13:18;102261.71;;;7.05;77.73
51067;BME280;37112;45.892;-123.962;2023-02-17T08:15:34;102265.45;;;7.04;77.69
51067;BME280;37112;45.892;-123.962;2023-02-17T08:17:47;102267.09;;;7.03;77.65
51067;BME280;37112;45.892;-123.962;2023-02-17T08:20:01;102265.00;;;7.02;77.87
51067;BME280;37112;45.892;-123.962;2023-02-17T08:22:17;102265.18;;;7.02;78.02
51067;BME280;37112;45.892;-123.962;2023-02-17T08:24:31;102262.20;;;7.01;77.73
51067;BME280;37112;45.892;-123.962;2023-02-17T08:26:44;102270.69;;;7.00;77.92
51067;BME280;37112;45.892;-123.962;2023-02-17T08:28:57;102272.83;;;6.99;77.98
51067;BME280;37112;45.892;-123.962;2023-02-17T08:31:19;102271.09;;;6.98;78.09
51067;BME280;37112;45.892;-123.962;2023-02-17T08:33:33;102271.96;;;6.98;78.12
51067;BME280;37112;45.892;-123.962;2023-02-17T08:35:47;102269.16;;;6.97;78.23
51067;BME280;37112;45.892;-123.962;2023-02-17T08:38:01;102271.67;;;6.96;78.36
51067;BME280;37112;45.892;-123.962;2023-02-17T08:40:15;102273.98;;;6.96;78.41
51067;BME280;37112;45.892;-123.962;2023-02-17T08:42:29;102272.98;;;6.94;78.54
51067;BME280;37112;45.892;-123.962;2023-02-17T08:44:43;102276.02;;;6.93;78.58
51067;BME280;37112;45.892;-123.962;2023-02-17T08:46:58;102274.25;;;6.93;78.68
51067;BME280;37112;45.892;-123.962;2023-02-17T08:49:12;102275.30;;;6.92;78.77
51067;BME280;37112;45.892;-123.962;2023-02-17T08:51:26;102278.66;;;6.92;78.77
51067;BME280;37112;45.892;-123.962;2023-02-17T08:53:39;102279.02;;;6.92;78.91
51067;BME280;37112;45.892;-123.962;2023-02-17T08:55:52;102279.36;;;6.92;79.00
51067;BME280;37112;45.892;-123.962;2023-02-17T08:58:06;102274.45;;;6.91;78.96
51067;BME280;37112;45.892;-123.962;2023-02-17T09:00:21;102274.51;;;6.90;79.00
51067;BME280;37112;45.892;-123.962;2023-02-17T09:02:34;102276.27;;;6.89;79.12
51067;BME280;37112;45.892;-123.962;2023-02-17T09:04:47;102279.11;;;6.89;79.29
51067;BME280;37112;45.892;-123.962;2023-02-17T09:07:01;102279.28;;;6.89;79.49
51067;BME280;37112;45.892;-123.962;2023-02-17T09:09:15;102281.23;;;6.89;79.41
51067;BME280;37112;45.892;-123.962;2023-02-17T09:11:28;102278.62;;;6.88;79.42
51067;BME280;37112;45.892;-123.962;2023-02-17T09:13:42;102280.58;;;6.87;79.57
51067;BME280;37112;45.892;-123.962;2023-02-17T09:15:55;102282.35;;;6.87;79.74
51067;BME280;37112;45.892;-123.962;2023-02-17T09:18:08;102281.84;;;6.86;79.70
51067;BME280;37112;45.892;-123.962;2023-02-17T09:20:21;102283.27;;;6.86;79.73
51067;BME280;37112;45.892;-123.962;2023-02-17T09:22:35;102284.69;;;6.86;79.66
51067;BME280;37112;45.892;-123.962;2023-02-17T09:24:48;102288.95;;;6.85;79.86
51067;BME280;37112;45.892;-123.962;2023-02-17T09:27:03;102294.42;;;6.85;79.94
51067;BME280;37112;45.892;-123.962;2023-02-17T09:29:16;102296.89;;;6.85;79.95
51067;BME280;37112;45.892;-123.962;2023-02-17T09:31:29;102298.48;;;6.86;80.04
51067;BME280;37112;45.892;-123.962;2023-02-17T09:33:42;102301.30;;;6.85;80.05
51067;BME280;37112;45.892;-123.962;2023-02-17T09:35:57;102301.27;;;6.86;80.17
51067;BME280;37112;45.892;-123.962;2023-02-17T09:38:09;102300.56;;;6.86;80.17
51067;BME280;37112;45.892;-123.962;2023-02-17T09:40:26;102300.21;;;6.86;80.10
51067;BME280;37112;45.892;-123.962;2023-02-17T09:42:43;102298.81;;;6.86;80.19
51067;BME280;37112;45.892;-123.962;2023-02-17T09:44:59;102304.28;;;6.86;80.11
51067;BME280;37112;45.892;-123.962;2023-02-17T09:47:19;102307.45;;;6.87;80.31
51067;BME280;37112;45.892;-123.962;2023-02-17T09:49:38;102314.50;;;6.87;80.33
51067;BME280;37112;45.892;-123.962;2023-02-17T09:51:57;102313.95;;;6.88;80.46
51067;BME280;37112;45.892;-123.962;2023-02-17T09:54:17;102318.38;;;6.87;80.38
51067;BME280;37112;45.892;-123.962;2023-02-17T09:56:35;102325.41;;;6.88;80.60
51067;BME280;37112;45.892;-123.962;2023-02-17T09:58:52;102325.53;;;6.90;80.75
51067;BME280;37112;45.892;-123.962;2023-02-17T10:01:09;102327.23;;;6.91;80.74
51067;BME280;37112;45.892;-123.962;2023-02-17T10:03:27;102320.19;;;6.91;80.52
51067;BME280;37112;45.892;-123.962;2023-02-17T10:05:47;102324.79;;;6.91;80.59
51067;BME280;37112;45.892;-123.962;2023-02-17T10:08:07;102323.38;;;6.91;80.68
51067;BME280;37112;45.892;-123.962;2023-02-17T10:10:24;102317.80;;;6.89;80.56
51067;BME280;37112;45.892;-123.962;2023-02-17T10:12:57;102318.96;;;6.85;80.50
51067;BME280;37112;45.892;-123.962;2023-02-17T10:15:17;102319.48;;;6.85;80.62
51067;BME280;37112;45.892;-123.962;2023-02-17T10:17:36;102318.08;;;6.85;80.86
51067;BME280;37112;45.892;-123.962;2023-02-17T10:19:53;102317.17;;;6.86;81.01
51067;BME280;37112;45.892;-123.962;2023-02-17T10:22:13;102317.30;;;6.87;81.24
51067;BME280;37112;45.892;-123.962;2023-02-17T10:24:28;102317.65;;;6.87;80.97
51067;BME280;37112;45.892;-123.962;2023-02-17T10:26:55;102318.02;;;6.87;81.07
51067;BME280;37112;45.892;-123.962;2023-02-17T10:29:33;102311.86;;;6.87;80.98
51067;BME280;37112;45.892;-123.962;2023-02-17T10:31:52;102313.13;;;6.85;81.20
51067;BME280;37112;45.892;-123.962;2023-02-17T10:34:22;102313.48;;;6.85;81.24
51067;BME280;37112;45.892;-123.962;2023-02-17T10:36:44;102308.73;;;6.84;81.30
51067;BME280;37112;45.892;-123.962;2023-02-17T10:39:03;102305.04;;;6.83;81.23
51067;BME280;37112;45.892;-123.962;2023-02-17T10:41:21;102308.37;;;6.85;81.33
51067;BME280;37112;45.892;-123.962;2023-02-17T10:43:36;102300.90;;;6.87;81.47
51067;BME280;37112;45.892;-123.962;2023-02-17T10:45:49;102296.02;;;6.90;81.40
51067;BME280;37112;45.892;-123.962;2023-02-17T10:48:08;102299.46;;;6.94;81.59
51067;BME280;37112;45.892;-123.962;2023-02-17T10:50:25;102302.52;;;6.98;81.41
51067;BME280;37112;45.892;-123.962;2023-02-17T10:52:40;102299.45;;;7.02;81.37
51067;BME280;37112;45.892;-123.962;2023-02-17T10:54:56;102296.53;;;7.05;81.32
51067;BME280;37112;45.892;-123.962;2023-02-17T10:57:32;102298.73;;;7.08;81.17
51067;BME280;37112;45.892;-123.962;2023-02-17T10:59:48;102295.89;;;7.09;80.93
51067;BME280;37112;45.892;-123.962;2023-02-17T11:02:18;102292.86;;;7.10;80.87
51067;BME280;37112;45.892;-123.962;2023-02-17T11:04:42;102295.16;;;7.10;80.69
51067;BME280;37112;45.892;-123.962;2023-02-17T11:06:56;102293.06;;;7.09;80.38
51067;BME280;37112;45.892;-123.962;2023-02-17T11:09:20;102286.60;;;7.06;80.11
51067;BME280;37112;45.892;-123.962;2023-02-17T11:11:38;102286.09;;;7.05;80.34
51067;BME280;37112;45.892;-123.962;2023-02-17T11:14:08;102285.27;;;7.04;80.19
51067;BME280;37112;45.892;-123.962;2023-02-17T11:16:28;102279.83;;;7.02;80.31
51067;BME280;37112;45.892;-123.962;2023-02-17T11:18:49;102278.77;;;7.02;80.12
51067;BME280;37112;45.892;-123.962;2023-02-17T11:21:08;102275.80;;;7.01;80.37
51067;BME280;37112;45.892;-123.962;2023-02-17T11:23:26;102275.48;;;6.99;80.14
51067;BME280;37112;45.892;-123.962;2023-02-17T11:25:39;102275.17;;;6.97;79.99
51067;BME280;37112;45.892;-123.962;2023-02-17T11:27:57;102274.50;;;6.96;80.07
51067;BME280;37112;45.892;-123.962;2023-02-17T11:30:22;102275.42;;;6.95;79.94
51067;BME280;37112;45.892;-123.962;2023-02-17T11:32:36;102276.33;;;6.94;80.09
51067;BME280;37112;45.892;-123.962;2023-02-17T11:34:58;102276.13;;;6.95;80.08
51067;BME280;37112;45.892;-123.962;2023-02-17T11:37:22;102274.05;;;6.94;80.02
51067;BME280;37112;45.892;-123.962;2023-02-17T11:39:38;102274.96;;;6.92;79.89
51067;BME280;37112;45.892;-123.962;2023-02-17T11:41:51;102275.72;;;6.90;80.08